createdAt,value
2019-05-19T00:01:31.477Z,17.87
2019-05-19T00:04:02.086Z,17.87
2019-05-19T00:06:32.738Z,15.68
2019-05-19T00:09:05.390Z,17.57
2019-05-19T00:11:36.230Z,17.10
2019-05-19T00:14:06.643Z,18.30
2019-05-19T00:16:38.549Z,16.30
2019-05-19T00:19:09.506Z,16.32
2019-05-19T00:21:41.287Z,18.20
2019-05-19T00:24:11.943Z,16.25
2019-05-19T00:26:42.608Z,18.60
2019-05-19T00:29:13.968Z,16.67
2019-05-19T00:31:46.475Z,17.80
2019-05-19T00:34:16.764Z,20.95
2019-05-19T00:36:47.053Z,20.43
2019-05-19T00:39:17.317Z,19.98
2019-05-19T00:41:47.512Z,18.00
2019-05-19T00:44:19.125Z,17.98
2019-05-19T00:46:50.046Z,16.70
2019-05-19T00:49:22.140Z,19.55
2019-05-19T00:51:52.980Z,17.30
2019-05-19T00:54:23.383Z,16.42
2019-05-19T00:56:55.332Z,20.62
2019-05-19T00:59:27.518Z,21.50
2019-05-19T01:01:58.781Z,19.50
2019-05-19T01:04:29.185Z,19.55
2019-05-19T01:06:59.408Z,17.70
2019-05-19T01:09:29.638Z,18.85
2019-05-19T01:11:59.859Z,20.92
2019-05-19T01:14:30.162Z,18.82
2019-05-19T01:17:00.734Z,23.35
2019-05-19T01:19:31.402Z,20.27
2019-05-19T01:22:02.343Z,21.82
2019-05-19T01:24:32.621Z,18.82
2019-05-19T01:27:02.813Z,17.92
2019-05-19T01:29:33.076Z,20.57
2019-05-19T01:32:03.805Z,19.25
2019-05-19T01:34:34.092Z,18.95
2019-05-19T01:37:04.746Z,23.92
2019-05-19T01:39:35.074Z,19.85
2019-05-19T01:42:05.386Z,18.62
2019-05-19T01:44:35.700Z,18.40
2019-05-19T01:47:06.330Z,21.97
2019-05-19T01:49:36.877Z,22.40
2019-05-19T01:52:07.141Z,20.95
2019-05-19T01:54:37.434Z,25.23
2019-05-19T01:57:07.673Z,28.35
2019-05-19T01:59:38.364Z,21.23
2019-05-19T02:02:08.717Z,23.47
2019-05-19T02:04:38.966Z,24.63
2019-05-19T02:07:09.408Z,23.98
2019-05-19T02:09:40.106Z,21.52
2019-05-19T02:12:10.763Z,24.85
2019-05-19T02:14:42.070Z,22.87
2019-05-19T02:17:12.382Z,24.02
2019-05-19T02:19:43.490Z,22.67
2019-05-19T02:22:13.895Z,23.65
2019-05-19T02:24:44.133Z,26.12
2019-05-19T02:27:14.908Z,26.48
2019-05-19T02:29:45.301Z,29.55
2019-05-19T02:32:15.526Z,27.77
2019-05-19T02:34:45.768Z,28.80
2019-05-19T02:37:15.980Z,25.82
2019-05-19T02:39:46.263Z,29.65
2019-05-19T02:42:19.173Z,27.50
2019-05-19T02:44:52.858Z,29.10
2019-05-19T02:47:26.912Z,30.90
2019-05-19T02:50:00.709Z,34.78
2019-05-19T02:52:33.560Z,33.25
2019-05-19T02:55:05.760Z,28.57
2019-05-19T02:57:38.774Z,30.45
2019-05-19T03:00:11.154Z,27.75
2019-05-19T03:02:42.605Z,29.52
2019-05-19T03:05:14.488Z,29.20
2019-05-19T03:07:45.149Z,30.08
2019-05-19T03:10:15.861Z,31.23
2019-05-19T03:12:46.538Z,30.77
2019-05-19T03:15:17.451Z,30.68
2019-05-19T03:17:47.770Z,34.23
2019-05-19T03:20:17.995Z,31.85
2019-05-19T03:22:48.269Z,28.60
2019-05-19T03:25:18.538Z,35.63
2019-05-19T03:27:48.967Z,33.13
2019-05-19T03:30:27.050Z,34.95
2019-05-19T03:33:01.565Z,35.73
2019-05-19T03:35:32.618Z,30.17
2019-05-19T03:38:02.937Z,29.52
2019-05-19T03:40:33.165Z,34.60
2019-05-19T03:43:03.533Z,30.12
2019-05-19T03:45:33.740Z,27.50
2019-05-19T03:48:04.349Z,30.43
2019-05-19T03:50:34.648Z,29.25
2019-05-19T03:53:05.260Z,27.50
2019-05-19T03:55:37.605Z,25.65
2019-05-19T03:58:08.252Z,28.20
2019-05-19T04:00:38.854Z,25.95
2019-05-19T04:03:09.052Z,28.32
2019-05-19T04:05:39.678Z,28.23
2019-05-19T04:08:10.039Z,28.80
2019-05-19T04:10:40.322Z,28.32
2019-05-19T04:13:11.011Z,31.60
2019-05-19T04:15:41.297Z,26.57
2019-05-19T04:18:11.628Z,27.55
2019-05-19T04:20:42.210Z,27.62
2019-05-19T04:23:12.513Z,26.45
2019-05-19T04:25:43.126Z,27.65
2019-05-19T04:28:13.444Z,24.30
2019-05-19T04:30:43.870Z,27.17
2019-05-19T04:33:14.119Z,24.47
2019-05-19T04:35:44.694Z,22.55
2019-05-19T04:38:15.445Z,23.25
2019-05-19T04:40:45.723Z,22.22
2019-05-19T04:43:17.235Z,20.72
2019-05-19T04:45:47.527Z,20.68
2019-05-19T04:48:18.106Z,20.23
2019-05-19T04:50:49.921Z,19.92
2019-05-19T04:53:22.074Z,16.90
2019-05-19T04:55:53.424Z,16.12
2019-05-19T04:58:24.023Z,18.05
2019-05-19T05:00:57.058Z,18.57
2019-05-19T05:03:27.368Z,16.62
2019-05-19T05:05:57.613Z,16.48
2019-05-19T05:08:30.616Z,15.60
2019-05-19T05:11:00.226Z,17.17
2019-05-19T05:13:34.010Z,17.35
2019-05-19T05:16:04.464Z,16.20
2019-05-19T05:18:35.079Z,16.07
2019-05-19T05:21:07.888Z,17.35
2019-05-19T05:23:38.133Z,15.30
2019-05-19T05:26:11.271Z,14.63
2019-05-19T05:28:43.512Z,13.40
2019-05-19T05:31:15.592Z,15.18
2019-05-19T05:33:48.252Z,11.95
2019-05-19T05:36:19.134Z,12.63
2019-05-19T05:38:49.533Z,14.70
2019-05-19T05:41:20.231Z,14.28
2019-05-19T05:43:50.632Z,11.50
2019-05-19T05:46:21.211Z,10.35
2019-05-19T05:48:51.605Z,11.97
2019-05-19T05:51:21.825Z,10.15
2019-05-19T05:53:54.784Z,10.88
2019-05-19T05:56:25.080Z,11.35
2019-05-19T05:58:55.358Z,13.00
2019-05-19T06:01:25.825Z,13.62
2019-05-19T06:03:56.518Z,11.95
2019-05-19T06:06:28.602Z,13.93
2019-05-19T06:08:59.996Z,12.53
2019-05-19T06:11:30.199Z,10.68
2019-05-19T06:14:00.805Z,13.90
2019-05-19T06:16:45.087Z,14.58
2019-05-19T06:19:15.514Z,11.90
2019-05-19T06:21:46.174Z,14.35
2019-05-19T06:24:16.864Z,11.57
2019-05-19T06:26:49.110Z,12.73
2019-05-19T06:29:19.480Z,13.13
2019-05-19T06:31:49.738Z,14.80
2019-05-19T06:34:20.298Z,10.00
2019-05-19T06:36:55.168Z,11.60
2019-05-19T06:39:25.972Z,15.15
2019-05-19T06:41:58.426Z,11.60
2019-05-19T06:44:30.097Z,10.32
2019-05-19T06:47:01.587Z,11.80
2019-05-19T06:49:35.173Z,10.15
2019-05-19T06:52:05.560Z,13.18
2019-05-19T06:54:35.776Z,12.20
2019-05-19T06:57:06.228Z,11.97
2019-05-19T06:59:36.525Z,11.90
2019-05-19T07:02:07.609Z,11.75
2019-05-19T07:04:37.912Z,11.10
2019-05-19T07:07:08.412Z,12.43
2019-05-19T07:09:39.090Z,12.00
2019-05-19T07:12:09.764Z,11.40
2019-05-19T07:14:41.345Z,11.57
2019-05-19T07:17:13.296Z,11.65
2019-05-19T07:19:43.529Z,11.12
2019-05-19T07:22:13.813Z,13.13
2019-05-19T07:24:44.944Z,11.30
2019-05-19T07:27:15.379Z,12.53
2019-05-19T07:29:48.287Z,11.80
2019-05-19T07:32:19.058Z,12.78
2019-05-19T07:34:51.267Z,13.18
2019-05-19T07:37:22.596Z,11.28
2019-05-19T07:39:52.908Z,13.40
2019-05-19T07:42:23.498Z,10.40
2019-05-19T07:44:54.955Z,10.20
2019-05-19T07:47:25.591Z,10.15
2019-05-19T07:49:56.239Z,9.33
2019-05-19T07:52:28.291Z,11.43
2019-05-19T07:54:58.942Z,10.43
2019-05-19T07:57:34.022Z,10.15
2019-05-19T08:02:35.549Z,14.13
2019-05-19T08:05:06.581Z,13.30
2019-05-19T08:07:40.061Z,10.93
2019-05-19T08:10:11.285Z,10.98
2019-05-19T08:12:41.537Z,9.63
2019-05-19T08:15:12.061Z,12.58
2019-05-19T08:17:42.332Z,9.78
2019-05-19T08:20:13.687Z,9.98
2019-05-19T08:22:44.543Z,9.65
2019-05-19T08:25:20.961Z,10.08
2019-05-19T08:27:51.701Z,9.78
2019-05-19T08:30:22.189Z,9.50
2019-05-19T08:32:52.577Z,10.58
2019-05-19T08:35:22.815Z,13.35
2019-05-19T08:37:54.758Z,12.43
2019-05-19T08:40:25.980Z,10.60
2019-05-19T08:42:57.449Z,11.63
2019-05-19T08:45:28.248Z,11.95
2019-05-19T08:47:58.599Z,10.95
2019-05-19T08:50:29.024Z,11.53
2019-05-19T08:52:59.689Z,10.05
2019-05-19T08:55:30.271Z,10.88
2019-05-19T08:58:00.735Z,7.72
2019-05-19T09:00:38.064Z,14.43
2019-05-19T09:03:06.466Z,8.08
2019-05-19T09:05:37.220Z,6.40
2019-05-19T09:08:07.607Z,7.55
2019-05-19T09:10:38.038Z,7.70
2019-05-19T09:13:10.101Z,9.70
2019-05-19T09:15:40.942Z,8.25
2019-05-19T09:18:13.121Z,7.65
2019-05-19T09:20:43.768Z,8.18
2019-05-19T09:23:15.927Z,10.85
2019-05-19T09:25:49.386Z,7.60
2019-05-19T09:28:20.211Z,7.65
2019-05-19T09:30:50.834Z,8.85
2019-05-19T09:33:21.591Z,10.53
2019-05-19T09:35:51.979Z,8.15
2019-05-19T09:38:22.555Z,10.43
2019-05-19T09:40:53.202Z,8.05
2019-05-19T09:43:26.741Z,10.80
2019-05-19T09:45:57.647Z,8.00
2019-05-19T09:48:30.580Z,7.97
2019-05-19T09:51:00.929Z,7.08
2019-05-19T09:53:31.538Z,6.92
2019-05-19T09:56:02.404Z,8.28
2019-05-19T09:58:33.042Z,7.22
2019-05-19T10:01:03.356Z,7.33
2019-05-19T10:03:34.157Z,7.80
2019-05-19T10:06:05.153Z,9.80
2019-05-19T10:08:39.671Z,7.75
2019-05-19T10:11:25.765Z,6.60
2019-05-19T10:13:56.158Z,8.90
2019-05-19T10:16:28.944Z,7.17
2019-05-19T10:19:02.827Z,6.00
2019-05-19T10:21:36.277Z,6.87
2019-05-19T10:24:06.665Z,8.95
2019-05-19T10:26:37.237Z,5.20
2019-05-19T10:29:07.552Z,7.42
2019-05-19T10:32:02.597Z,6.42
2019-05-19T10:34:40.071Z,6.78
2019-05-19T10:37:20.704Z,6.37
2019-05-19T10:39:56.430Z,6.65
2019-05-19T10:42:28.218Z,9.53
2019-05-19T10:45:03.383Z,6.60
2019-05-19T10:47:31.828Z,8.18
2019-05-19T10:50:02.209Z,9.40
2019-05-19T10:52:32.462Z,19.37
2019-05-19T10:55:03.414Z,7.12
2019-05-19T10:57:35.332Z,7.83
2019-05-19T11:00:08.497Z,8.38
2019-05-19T11:02:38.782Z,6.58
2019-05-19T11:05:11.292Z,17.32
2019-05-19T11:07:41.470Z,6.85
2019-05-19T11:10:12.243Z,7.53
2019-05-19T11:12:42.897Z,8.55
2019-05-19T11:15:13.484Z,9.00
2019-05-19T11:17:43.880Z,9.70
2019-05-19T11:20:14.314Z,9.13
2019-05-19T11:22:44.721Z,7.85
2019-05-19T11:25:15.034Z,11.03
2019-05-19T11:27:45.273Z,6.67
2019-05-19T11:30:15.628Z,9.00
2019-05-19T11:32:45.967Z,7.00
2019-05-19T11:35:16.220Z,6.53
2019-05-19T11:37:46.612Z,6.78
2019-05-19T11:40:17.134Z,9.83
2019-05-19T11:42:47.477Z,7.60
2019-05-19T11:45:17.944Z,7.97
2019-05-19T11:47:48.616Z,8.18
2019-05-19T11:50:20.656Z,8.10
2019-05-19T11:52:51.569Z,8.68
2019-05-19T11:55:23.296Z,6.62
2019-05-19T11:57:54.003Z,6.87
2019-05-19T12:00:24.363Z,7.42
2019-05-19T12:02:54.667Z,8.13
2019-05-19T12:05:24.992Z,6.37
2019-05-19T12:07:55.426Z,7.08
2019-05-19T12:10:26.074Z,8.08
2019-05-19T12:12:56.697Z,5.80
2019-05-19T12:15:27.438Z,10.32
2019-05-19T12:17:59.364Z,7.95
2019-05-19T12:20:30.436Z,10.32
2019-05-19T12:23:00.907Z,8.05
2019-05-19T12:25:32.299Z,9.48
2019-05-19T12:28:02.730Z,7.47
2019-05-19T12:30:33.138Z,9.73
2019-05-19T12:33:04.802Z,11.22
2019-05-19T12:35:35.453Z,7.67
2019-05-19T12:38:05.837Z,8.08
2019-05-19T12:40:36.063Z,9.80
2019-05-19T12:43:06.400Z,12.70
2019-05-19T12:45:36.637Z,7.45
2019-05-19T12:48:07.012Z,10.32
2019-05-19T12:50:37.549Z,9.80
2019-05-19T12:53:08.433Z,7.42
2019-05-19T12:55:39.041Z,8.58
2019-05-19T12:58:09.319Z,7.00
2019-05-19T13:00:39.607Z,7.55
2019-05-19T13:03:12.968Z,8.18
2019-05-19T13:05:43.559Z,6.85
2019-05-19T13:08:14.019Z,6.08
2019-05-19T13:10:44.619Z,7.72
2019-05-19T13:13:15.645Z,8.40
2019-05-19T13:15:46.023Z,6.70
2019-05-19T13:18:16.306Z,7.35
2019-05-19T13:20:49.648Z,9.93
2019-05-19T13:23:20.376Z,7.97
2019-05-19T13:25:51.034Z,6.72
2019-05-19T13:28:21.350Z,11.55
2019-05-19T13:30:51.931Z,6.97
2019-05-19T13:33:25.086Z,9.18
2019-05-19T13:35:55.927Z,8.40
2019-05-19T13:38:28.318Z,9.95
2019-05-19T13:40:58.629Z,7.17
2019-05-19T13:43:28.886Z,7.20
2019-05-19T13:45:59.155Z,7.03
2019-05-19T13:48:29.741Z,10.00
2019-05-19T13:51:00.025Z,7.95
2019-05-19T13:53:36.854Z,8.68
2019-05-19T13:56:13.327Z,9.50
2019-05-19T13:58:43.562Z,10.93
2019-05-19T14:01:27.550Z,13.72
2019-05-19T14:03:45.838Z,9.65
2019-05-19T14:06:17.579Z,12.40
2019-05-19T14:08:49.837Z,10.10
2019-05-19T14:11:20.548Z,9.88
2019-05-19T14:13:50.909Z,9.80
2019-05-19T14:16:21.214Z,9.15
2019-05-19T14:18:51.509Z,10.63
2019-05-19T14:21:21.815Z,9.25
2019-05-19T14:23:52.244Z,10.98
2019-05-19T14:26:22.925Z,8.40
2019-05-19T14:28:55.134Z,13.58
2019-05-19T14:31:25.583Z,7.97
2019-05-19T14:33:55.834Z,8.70
2019-05-19T14:36:26.144Z,7.25
2019-05-19T14:39:05.476Z,9.33
2019-05-19T14:41:36.788Z,8.15
2019-05-19T14:44:07.582Z,8.20
2019-05-19T14:46:38.634Z,8.60
2019-05-19T14:49:08.964Z,7.30
2019-05-19T14:51:40.922Z,10.38
2019-05-19T14:54:11.750Z,8.90
2019-05-19T14:56:42.231Z,9.55
2019-05-19T14:59:12.600Z,7.70
2019-05-19T15:01:43.316Z,6.65
2019-05-19T15:04:13.617Z,8.03
2019-05-19T15:06:45.904Z,6.67
2019-05-19T15:09:16.700Z,8.30
2019-05-19T15:11:53.984Z,6.67
2019-05-19T15:14:27.125Z,6.37
2019-05-19T15:16:57.758Z,5.92
2019-05-19T15:19:29.260Z,6.80
2019-05-19T15:21:59.671Z,10.88
2019-05-19T15:24:29.918Z,5.58
2019-05-19T15:27:00.222Z,9.13
2019-05-19T15:29:30.459Z,8.45
2019-05-19T15:32:02.397Z,8.38
2019-05-19T15:34:33.266Z,7.50
2019-05-19T15:37:03.997Z,8.00
2019-05-19T15:39:34.839Z,7.90
2019-05-19T15:42:05.519Z,6.60
2019-05-19T15:44:36.189Z,7.03
2019-05-19T15:47:21.198Z,9.65
2019-05-19T15:50:03.330Z,6.70
2019-05-19T15:52:34.980Z,11.80
2019-05-19T15:55:06.488Z,7.25
2019-05-19T15:57:38.910Z,6.80
2019-05-19T16:00:11.643Z,6.20
2019-05-19T16:02:46.979Z,7.35
2019-05-19T16:05:17.369Z,8.08
2019-05-19T16:07:49.665Z,7.75
2019-05-19T16:10:20.865Z,8.73
2019-05-19T16:12:51.523Z,6.67
2019-05-19T16:15:22.753Z,9.58
2019-05-19T16:17:53.618Z,10.53
2019-05-19T16:20:27.018Z,7.37
2019-05-19T16:23:02.427Z,8.17
2019-05-19T16:25:33.694Z,6.95
2019-05-19T16:28:04.124Z,7.20
2019-05-19T16:30:34.810Z,9.25
2019-05-19T16:33:05.529Z,9.15
2019-05-19T16:35:35.733Z,9.95
2019-05-19T16:38:06.057Z,8.78
2019-05-19T16:40:36.667Z,10.43
2019-05-19T16:43:07.429Z,10.35
2019-05-19T16:45:37.825Z,8.75
2019-05-19T16:48:08.174Z,7.87
2019-05-19T16:50:38.427Z,12.47
2019-05-19T16:53:08.634Z,9.75
2019-05-19T16:55:40.494Z,9.73
2019-05-19T16:58:20.678Z,11.60
2019-05-19T17:00:43.352Z,11.63
2019-05-19T17:03:13.689Z,10.85
2019-05-19T17:05:44.000Z,8.98
2019-05-19T17:08:14.230Z,10.75
2019-05-19T17:10:45.028Z,9.43
2019-05-19T17:13:16.524Z,9.78
2019-05-19T17:15:48.399Z,10.32
2019-05-19T17:18:19.128Z,8.65
2019-05-19T17:20:49.401Z,9.30
2019-05-19T17:23:20.792Z,12.15
2019-05-19T17:25:51.183Z,10.85
2019-05-19T17:28:21.776Z,9.63
2019-05-19T17:30:52.142Z,11.45
2019-05-19T17:33:23.365Z,10.43
2019-05-19T17:35:53.600Z,12.33
2019-05-19T17:38:23.892Z,11.75
2019-05-19T17:40:54.234Z,15.13
2019-05-19T17:43:24.477Z,11.00
2019-05-19T17:45:55.065Z,10.63
2019-05-19T17:48:26.919Z,10.68
2019-05-19T17:50:57.908Z,17.50
2019-05-19T17:53:28.577Z,10.35
2019-05-19T17:56:01.290Z,12.90
2019-05-19T17:58:33.161Z,13.48
2019-05-19T18:01:06.945Z,14.68
2019-05-19T18:03:39.559Z,12.68
2019-05-19T18:06:09.972Z,32.05
2019-05-19T18:08:42.335Z,37.10
2019-05-19T18:11:13.047Z,13.18
2019-05-19T18:13:45.334Z,23.10
2019-05-19T18:16:15.741Z,21.42
2019-05-19T18:18:45.956Z,36.77
2019-05-19T18:21:16.318Z,28.75
2019-05-19T18:23:46.544Z,25.25
2019-05-19T18:26:17.155Z,28.17
2019-05-19T18:28:47.506Z,41.23
2019-05-19T18:31:19.705Z,23.83
2019-05-19T18:33:50.443Z,23.32
2019-05-19T18:36:20.706Z,21.35
2019-05-19T18:38:53.949Z,19.55
2019-05-19T18:41:26.579Z,24.87
2019-05-19T18:44:00.051Z,23.50
2019-05-19T18:46:30.703Z,19.77
2019-05-19T18:49:05.667Z,18.57
2019-05-19T18:51:36.970Z,22.73
2019-05-19T18:54:07.285Z,23.70
2019-05-19T18:56:40.744Z,27.05
2019-05-19T18:59:10.995Z,47.17
2019-05-19T19:01:43.190Z,29.45
2019-05-19T19:04:13.544Z,43.98
2019-05-19T19:06:44.133Z,40.23
2019-05-19T19:09:15.983Z,36.17
2019-05-19T19:11:46.241Z,38.95
2019-05-19T19:14:16.800Z,31.20
2019-05-19T19:16:47.540Z,39.25
2019-05-19T19:19:17.892Z,36.68
2019-05-19T19:21:48.180Z,35.28
2019-05-19T19:24:19.918Z,30.37
2019-05-19T19:26:50.218Z,32.28
2019-05-19T19:29:20.579Z,24.67
2019-05-19T19:31:50.844Z,29.85
2019-05-19T19:34:21.201Z,35.17
2019-05-19T19:36:51.421Z,31.30
2019-05-19T19:39:23.609Z,29.10
2019-05-19T19:41:54.157Z,33.67
2019-05-19T19:44:24.434Z,29.12
2019-05-19T19:46:54.786Z,40.65
2019-05-19T19:49:25.763Z,37.78
2019-05-19T19:51:58.777Z,32.30
2019-05-19T19:54:33.461Z,37.10
2019-05-19T19:57:03.958Z,35.95
2019-05-19T19:59:34.799Z,38.73
2019-05-19T20:02:06.056Z,33.35
2019-05-19T20:04:38.006Z,38.23
2019-05-19T20:07:08.298Z,30.00
2019-05-19T20:09:38.524Z,35.55
2019-05-19T20:12:08.783Z,39.78
2019-05-19T20:14:38.995Z,32.17
2019-05-19T20:17:09.651Z,38.50
2019-05-19T20:19:40.162Z,34.60
2019-05-19T20:22:10.389Z,33.53
2019-05-19T20:24:41.058Z,31.73
2019-05-19T20:27:12.622Z,30.57
2019-05-19T20:29:42.835Z,32.78
2019-05-19T20:32:13.046Z,34.25
2019-05-19T20:34:43.334Z,32.50
2019-05-19T20:37:15.260Z,29.25
2019-05-19T20:39:45.605Z,28.00
2019-05-19T20:42:15.885Z,31.02
2019-05-19T20:44:46.536Z,30.12
2019-05-19T20:47:17.173Z,27.93
2019-05-19T20:49:47.478Z,23.07
2019-05-19T20:52:17.731Z,24.12
2019-05-19T20:54:48.351Z,21.87
2019-05-19T20:57:18.783Z,20.02
2019-05-19T20:59:50.054Z,19.60
2019-05-19T21:02:20.755Z,21.95
2019-05-19T21:04:51.964Z,21.05
2019-05-19T21:07:22.657Z,18.42
2019-05-19T21:09:54.588Z,19.80
2019-05-19T21:12:28.676Z,15.98
2019-05-19T21:15:00.047Z,17.73
2019-05-19T21:17:31.910Z,19.73
2019-05-19T21:20:02.841Z,18.70
2019-05-19T21:22:33.722Z,19.25
2019-05-19T21:25:06.662Z,16.95
2019-05-19T21:27:37.011Z,15.10
2019-05-19T21:30:11.260Z,17.50
2019-05-19T21:35:12.903Z,17.02
2019-05-19T21:37:43.499Z,14.90
2019-05-19T21:40:14.219Z,18.87
2019-05-19T21:42:48.641Z,18.45
2019-05-19T21:45:19.569Z,15.35
2019-05-19T21:47:50.300Z,17.67
2019-05-19T21:50:21.039Z,16.65
2019-05-19T21:52:51.714Z,14.28
2019-05-19T21:55:22.430Z,16.65
2019-05-19T21:57:53.111Z,17.87
2019-05-19T22:00:25.128Z,15.05
2019-05-19T22:02:56.925Z,17.50
2019-05-19T22:05:27.247Z,13.90
2019-05-19T22:08:08.099Z,15.50
2019-05-19T22:10:38.366Z,18.87
2019-05-19T22:13:08.586Z,14.50
2019-05-19T22:15:39.230Z,16.67
2019-05-19T22:18:09.592Z,16.75
2019-05-19T22:20:40.189Z,16.17
2019-05-19T22:23:10.491Z,18.00
2019-05-19T22:25:41.123Z,16.00
2019-05-19T22:28:11.836Z,17.80
2019-05-19T22:30:42.165Z,18.75
2019-05-19T22:33:12.476Z,20.95
2019-05-19T22:35:42.709Z,15.08
2019-05-19T22:38:13.017Z,15.90
2019-05-19T22:40:43.679Z,17.15
2019-05-19T22:43:15.493Z,18.67
2019-05-19T22:45:46.090Z,17.70
2019-05-19T22:48:16.377Z,15.53
2019-05-19T22:50:46.954Z,14.95
2019-05-19T22:53:17.615Z,20.15
2019-05-19T22:55:48.258Z,16.97
2019-05-19T22:58:18.983Z,14.23
2019-05-19T23:00:49.620Z,19.90
2019-05-19T23:03:20.300Z,17.10
2019-05-19T23:05:50.929Z,16.87
2019-05-19T23:08:21.623Z,21.20
2019-05-19T23:10:51.901Z,18.67
2019-05-19T23:13:22.574Z,16.95
2019-05-19T23:15:52.892Z,18.15
2019-05-19T23:18:23.133Z,21.30
2019-05-19T23:20:53.392Z,16.77
2019-05-19T23:23:26.643Z,17.85
2019-05-19T23:25:56.866Z,15.10
2019-05-19T23:28:27.154Z,18.98
2019-05-19T23:30:57.710Z,15.23
2019-05-19T23:33:28.043Z,19.82
2019-05-19T23:35:58.286Z,16.37
2019-05-19T23:38:28.876Z,21.02
2019-05-19T23:40:59.536Z,16.95
2019-05-19T23:43:31.367Z,20.97
2019-05-19T23:46:01.685Z,19.23
2019-05-19T23:48:32.250Z,18.30
2019-05-19T23:51:02.918Z,16.32
2019-05-19T23:53:33.603Z,22.37
2019-05-19T23:56:04.283Z,19.25
2019-05-19T23:58:34.859Z,22.80
